sensor_id;sensor_type;location;lat;lon;timestamp;temperature;humidity
11925;DHT22;6022;48.768;18.608;2023-08-12T00:02:17;15.90;99.90
11925;DHT22;6022;48.768;18.608;2023-08-12T00:04:45;15.20;99.90
11925;DHT22;6022;48.768;18.608;2023-08-12T00:07:13;16.10;99.90
11925;DHT22;6022;48.768;18.608;2023-08-12T00:09:40;16.00;99.90
11925;DHT22;6022;48.768;18.608;2023-08-12T00:12:08;15.00;99.90
11925;DHT22;6022;48.768;18.608;2023-08-12T00:14:35;15.10;99.90
11925;DHT22;6022;48.768;18.608;2023-08-12T00:17:02;15.30;99.90
11925;DHT22;6022;48.768;18.608;2023-08-12T00:19:29;15.40;99.90
11925;DHT22;6022;48.768;18.608;2023-08-12T00:21:56;14.90;99.90
11925;DHT22;6022;48.768;18.608;2023-08-12T00:24:23;15.90;99.90
11925;DHT22;6022;48.768;18.608;2023-08-12T00:26:50;15.40;99.90
11925;DHT22;6022;48.768;18.608;2023-08-12T00:29:17;15.10;99.90
11925;DHT22;6022;48.768;18.608;2023-08-12T00:31:45;15.40;99.90
11925;DHT22;6022;48.768;18.608;2023-08-12T00:34:12;15.50;99.90
11925;DHT22;6022;48.768;18.608;2023-08-12T00:36:39;15.40;99.90
11925;DHT22;6022;48.768;18.608;2023-08-12T00:39:06;14.90;99.90
11925;DHT22;6022;48.768;18.608;2023-08-12T00:41:33;15.10;99.90
11925;DHT22;6022;48.768;18.608;2023-08-12T00:44:00;15.30;99.90
11925;DHT22;6022;48.768;18.608;2023-08-12T00:46:27;15.60;99.90
11925;DHT22;6022;48.768;18.608;2023-08-12T00:48:54;15.40;99.90
11925;DHT22;6022;48.768;18.608;2023-08-12T00:51:22;15.50;99.90
11925;DHT22;6022;48.768;18.608;2023-08-12T00:53:50;14.80;99.90
11925;DHT22;6022;48.768;18.608;2023-08-12T00:56:18;15.30;99.90
11925;DHT22;6022;48.768;18.608;2023-08-12T00:58:48;15.40;99.90
11925;DHT22;6022;48.768;18.608;2023-08-12T01:01:15;15.40;99.90
11925;DHT22;6022;48.768;18.608;2023-08-12T01:03:44;15.30;99.90
11925;DHT22;6022;48.768;18.608;2023-08-12T01:06:12;15.00;99.90
11925;DHT22;6022;48.768;18.608;2023-08-12T01:08:40;14.90;99.90
11925;DHT22;6022;48.768;18.608;2023-08-12T01:12:01;14.80;99.90
11925;DHT22;6022;48.768;18.608;2023-08-12T01:14:39;15.50;99.90
11925;DHT22;6022;48.768;18.608;2023-08-12T01:17:14;14.90;99.90
11925;DHT22;6022;48.768;18.608;2023-08-12T01:19:43;15.00;99.90
11925;DHT22;6022;48.768;18.608;2023-08-12T01:22:12;14.90;99.90
11925;DHT22;6022;48.768;18.608;2023-08-12T01:24:41;15.40;99.90
11925;DHT22;6022;48.768;18.608;2023-08-12T01:27:13;15.40;99.90
11925;DHT22;6022;48.768;18.608;2023-08-12T01:29:43;15.00;99.90
11925;DHT22;6022;48.768;18.608;2023-08-12T01:32:31;14.70;99.90
11925;DHT22;6022;48.768;18.608;2023-08-12T01:37:45;15.40;99.90
11925;DHT22;6022;48.768;18.608;2023-08-12T01:40:14;15.20;99.90
11925;DHT22;6022;48.768;18.608;2023-08-12T01:42:44;15.00;99.90
11925;DHT22;6022;48.768;18.608;2023-08-12T01:45:12;15.00;99.90
11925;DHT22;6022;48.768;18.608;2023-08-12T01:47:43;14.80;99.90
11925;DHT22;6022;48.768;18.608;2023-08-12T01:50:11;14.70;99.90
11925;DHT22;6022;48.768;18.608;2023-08-12T01:52:38;14.70;99.90
11925;DHT22;6022;48.768;18.608;2023-08-12T01:55:05;14.70;99.90
11925;DHT22;6022;48.768;18.608;2023-08-12T01:57:32;15.00;99.90
11925;DHT22;6022;48.768;18.608;2023-08-12T02:00:01;15.00;99.90
11925;DHT22;6022;48.768;18.608;2023-08-12T02:02:29;14.90;99.90
11925;DHT22;6022;48.768;18.608;2023-08-12T02:04:56;14.60;99.90
11925;DHT22;6022;48.768;18.608;2023-08-12T02:07:23;14.70;99.90
11925;DHT22;6022;48.768;18.608;2023-08-12T02:09:50;14.60;99.90
11925;DHT22;6022;48.768;18.608;2023-08-12T02:12:17;14.70;99.90
11925;DHT22;6022;48.768;18.608;2023-08-12T02:14:44;14.40;99.90
11925;DHT22;6022;48.768;18.608;2023-08-12T02:17:11;13.80;99.90
11925;DHT22;6022;48.768;18.608;2023-08-12T02:19:39;14.20;99.90
11925;DHT22;6022;48.768;18.608;2023-08-12T02:22:06;14.10;99.90
11925;DHT22;6022;48.768;18.608;2023-08-12T02:24:33;13.50;99.90
11925;DHT22;6022;48.768;18.608;2023-08-12T02:27:00;14.00;99.90
11925;DHT22;6022;48.768;18.608;2023-08-12T02:29:27;13.80;99.90
11925;DHT22;6022;48.768;18.608;2023-08-12T02:31:54;13.30;99.90
11925;DHT22;6022;48.768;18.608;2023-08-12T02:34:21;14.20;99.90
11925;DHT22;6022;48.768;18.608;2023-08-12T02:36:48;14.80;99.90
11925;DHT22;6022;48.768;18.608;2023-08-12T02:39:16;14.90;99.90
11925;DHT22;6022;48.768;18.608;2023-08-12T02:41:43;14.60;99.90
11925;DHT22;6022;48.768;18.608;2023-08-12T02:44:10;14.00;99.90
11925;DHT22;6022;48.768;18.608;2023-08-12T02:46:37;14.80;99.90
11925;DHT22;6022;48.768;18.608;2023-08-12T02:49:04;14.80;99.90
11925;DHT22;6022;48.768;18.608;2023-08-12T02:51:31;14.00;99.90
11925;DHT22;6022;48.768;18.608;2023-08-12T02:53:58;13.90;99.90
11925;DHT22;6022;48.768;18.608;2023-08-12T02:56:25;13.90;99.90
11925;DHT22;6022;48.768;18.608;2023-08-12T02:58:52;13.90;99.90
11925;DHT22;6022;48.768;18.608;2023-08-12T03:01:21;14.20;99.90
11925;DHT22;6022;48.768;18.608;2023-08-12T03:03:48;14.20;99.90
11925;DHT22;6022;48.768;18.608;2023-08-12T03:06:15;14.20;99.90
11925;DHT22;6022;48.768;18.608;2023-08-12T03:08:43;14.10;99.90
11925;DHT22;6022;48.768;18.608;2023-08-12T03:11:10;14.10;99.90
11925;DHT22;6022;48.768;18.608;2023-08-12T03:13:37;14.00;99.90
11925;DHT22;6022;48.768;18.608;2023-08-12T03:16:04;14.40;99.90
11925;DHT22;6022;48.768;18.608;2023-08-12T03:20:58;13.80;99.90
11925;DHT22;6022;48.768;18.608;2023-08-12T03:25:53;13.90;99.90
11925;DHT22;6022;48.768;18.608;2023-08-12T03:28:20;13.80;99.90
11925;DHT22;6022;48.768;18.608;2023-08-12T03:30:51;13.90;99.90
11925;DHT22;6022;48.768;18.608;2023-08-12T03:33:19;14.00;99.90
11925;DHT22;6022;48.768;18.608;2023-08-12T03:35:47;14.20;99.90
11925;DHT22;6022;48.768;18.608;2023-08-12T03:40:43;13.80;99.90
11925;DHT22;6022;48.768;18.608;2023-08-12T03:43:10;14.10;99.90
11925;DHT22;6022;48.768;18.608;2023-08-12T03:45:41;14.00;99.90
11925;DHT22;6022;48.768;18.608;2023-08-12T03:48:11;14.20;99.90
11925;DHT22;6022;48.768;18.608;2023-08-12T03:50:40;14.20;99.90
11925;DHT22;6022;48.768;18.608;2023-08-12T03:53:09;13.90;99.90
11925;DHT22;6022;48.768;18.608;2023-08-12T03:55:36;14.30;99.90
11925;DHT22;6022;48.768;18.608;2023-08-12T03:58:03;14.20;99.90
11925;DHT22;6022;48.768;18.608;2023-08-12T04:00:30;14.90;99.90
11925;DHT22;6022;48.768;18.608;2023-08-12T04:02:58;13.90;99.90
11925;DHT22;6022;48.768;18.608;2023-08-12T04:05:25;13.70;99.90
11925;DHT22;6022;48.768;18.608;2023-08-12T04:07:52;13.10;99.90
11925;DHT22;6022;48.768;18.608;2023-08-12T04:10:19;12.90;99.90
11925;DHT22;6022;48.768;18.608;2023-08-12T04:12:46;13.90;99.90
11925;DHT22;6022;48.768;18.608;2023-08-12T04:15:14;14.40;99.90
11925;DHT22;6022;48.768;18.608;2023-08-12T04:17:41;13.80;99.90
11925;DHT22;6022;48.768;18.608;2023-08-12T04:30:18;14.40;99.90
11925;DHT22;6022;48.768;18.608;2023-08-12T04:32:46;13.90;99.90
11925;DHT22;6022;48.768;18.608;2023-08-12T04:35:13;14.60;99.90
11925;DHT22;6022;48.768;18.608;2023-08-12T04:37:40;14.40;99.90
11925;DHT22;6022;48.768;18.608;2023-08-12T04:40:08;14.80;99.90
11925;DHT22;6022;48.768;18.608;2023-08-12T04:42:36;15.20;99.90
11925;DHT22;6022;48.768;18.608;2023-08-12T04:45:06;15.40;99.90
11925;DHT22;6022;48.768;18.608;2023-08-12T04:47:34;15.90;99.90
11925;DHT22;6022;48.768;18.608;2023-08-12T04:50:01;15.80;99.90
11925;DHT22;6022;48.768;18.608;2023-08-12T04:52:29;15.90;99.90
11925;DHT22;6022;48.768;18.608;2023-08-12T04:54:56;17.20;99.90
11925;DHT22;6022;48.768;18.608;2023-08-12T04:57:23;18.00;99.90
11925;DHT22;6022;48.768;18.608;2023-08-12T04:59:54;18.70;99.90
11925;DHT22;6022;48.768;18.608;2023-08-12T05:02:22;19.30;99.90
11925;DHT22;6022;48.768;18.608;2023-08-12T05:04:51;19.90;99.90
11925;DHT22;6022;48.768;18.608;2023-08-12T05:07:18;20.10;99.90
11925;DHT22;6022;48.768;18.608;2023-08-12T05:09:45;19.80;99.90
11925;DHT22;6022;48.768;18.608;2023-08-12T05:12:13;20.10;99.90
11925;DHT22;6022;48.768;18.608;2023-08-12T05:14:46;20.00;99.90
11925;DHT22;6022;48.768;18.608;2023-08-12T05:17:14;20.70;99.90
11925;DHT22;6022;48.768;18.608;2023-08-12T05:19:41;20.70;99.90
11925;DHT22;6022;48.768;18.608;2023-08-12T05:22:08;20.90;99.90
11925;DHT22;6022;48.768;18.608;2023-08-12T05:24:36;20.90;99.90
11925;DHT22;6022;48.768;18.608;2023-08-12T05:27:03;21.00;99.90
11925;DHT22;6022;48.768;18.608;2023-08-12T05:29:31;21.70;99.90
11925;DHT22;6022;48.768;18.608;2023-08-12T05:31:58;22.60;99.90
11925;DHT22;6022;48.768;18.608;2023-08-12T05:34:25;23.40;99.90
11925;DHT22;6022;48.768;18.608;2023-08-12T05:36:54;23.90;99.90
11925;DHT22;6022;48.768;18.608;2023-08-12T05:39:23;23.30;99.90
11925;DHT22;6022;48.768;18.608;2023-08-12T05:41:50;23.70;99.90
11925;DHT22;6022;48.768;18.608;2023-08-12T05:44:19;23.80;99.90
11925;DHT22;6022;48.768;18.608;2023-08-12T05:46:46;23.70;99.90
11925;DHT22;6022;48.768;18.608;2023-08-12T05:49:43;23.80;99.90
11925;DHT22;6022;48.768;18.608;2023-08-12T06:01:57;24.70;99.90
11925;DHT22;6022;48.768;18.608;2023-08-12T06:04:24;25.00;99.90
11925;DHT22;6022;48.768;18.608;2023-08-12T06:06:51;25.30;99.90
11925;DHT22;6022;48.768;18.608;2023-08-12T06:09:18;24.90;99.90
11925;DHT22;6022;48.768;18.608;2023-08-12T06:11:46;25.10;99.90
11925;DHT22;6022;48.768;18.608;2023-08-12T06:14:13;25.00;99.90
11925;DHT22;6022;48.768;18.608;2023-08-12T06:16:40;25.20;99.90
11925;DHT22;6022;48.768;18.608;2023-08-12T06:19:07;26.10;99.90
11925;DHT22;6022;48.768;18.608;2023-08-12T06:21:35;27.00;99.90
11925;DHT22;6022;48.768;18.608;2023-08-12T06:24:02;27.20;99.90
11925;DHT22;6022;48.768;18.608;2023-08-12T06:26:29;28.30;99.90
11925;DHT22;6022;48.768;18.608;2023-08-12T06:28:56;27.40;99.90
11925;DHT22;6022;48.768;18.608;2023-08-12T06:31:23;27.70;99.90
11925;DHT22;6022;48.768;18.608;2023-08-12T06:33:50;27.30;99.90
11925;DHT22;6022;48.768;18.608;2023-08-12T06:36:17;26.90;99.90
11925;DHT22;6022;48.768;18.608;2023-08-12T06:38:44;26.70;99.90
11925;DHT22;6022;48.768;18.608;2023-08-12T06:41:11;27.20;99.90
11925;DHT22;6022;48.768;18.608;2023-08-12T06:43:38;27.60;99.20
11925;DHT22;6022;48.768;18.608;2023-08-12T06:46:05;28.20;99.00
11925;DHT22;6022;48.768;18.608;2023-08-12T06:48:32;28.30;96.90
11925;DHT22;6022;48.768;18.608;2023-08-12T06:51:00;28.80;96.30
11925;DHT22;6022;48.768;18.608;2023-08-12T06:53:30;29.80;93.90
11925;DHT22;6022;48.768;18.608;2023-08-12T06:55:58;30.90;91.70
11925;DHT22;6022;48.768;18.608;2023-08-12T06:58:25;30.30;90.60
11925;DHT22;6022;48.768;18.608;2023-08-12T07:00:52;30.30;88.80
11925;DHT22;6022;48.768;18.608;2023-08-12T07:03:20;30.10;87.60
11925;DHT22;6022;48.768;18.608;2023-08-12T07:05:47;30.40;85.70
11925;DHT22;6022;48.768;18.608;2023-08-12T07:08:14;30.70;82.80
11925;DHT22;6022;48.768;18.608;2023-08-12T07:10:41;30.80;79.10
11925;DHT22;6022;48.768;18.608;2023-08-12T07:13:11;30.60;77.30
11925;DHT22;6022;48.768;18.608;2023-08-12T07:15:38;31.20;75.30
11925;DHT22;6022;48.768;18.608;2023-08-12T07:18:05;31.10;75.20
11925;DHT22;6022;48.768;18.608;2023-08-12T07:20:32;31.60;75.30
11925;DHT22;6022;48.768;18.608;2023-08-12T07:22:59;31.50;73.80
11925;DHT22;6022;48.768;18.608;2023-08-12T07:25:29;31.70;74.00
11925;DHT22;6022;48.768;18.608;2023-08-12T07:27:58;30.60;74.80
11925;DHT22;6022;48.768;18.608;2023-08-12T07:30:25;30.50;75.60
11925;DHT22;6022;48.768;18.608;2023-08-12T07:32:52;30.30;75.80
11925;DHT22;6022;48.768;18.608;2023-08-12T07:35:19;30.00;75.30
11925;DHT22;6022;48.768;18.608;2023-08-12T07:38:01;30.20;75.90
11925;DHT22;6022;48.768;18.608;2023-08-12T07:40:28;30.20;76.00
11925;DHT22;6022;48.768;18.608;2023-08-12T07:42:58;31.10;75.00
11925;DHT22;6022;48.768;18.608;2023-08-12T07:45:25;31.50;72.60
11925;DHT22;6022;48.768;18.608;2023-08-12T07:47:52;31.10;73.10
11925;DHT22;6022;48.768;18.608;2023-08-12T07:50:20;31.20;73.50
11925;DHT22;6022;48.768;18.608;2023-08-12T07:52:48;33.30;70.50
11925;DHT22;6022;48.768;18.608;2023-08-12T07:55:15;32.60;68.00
11925;DHT22;6022;48.768;18.608;2023-08-12T07:57:44;32.90;68.80
11925;DHT22;6022;48.768;18.608;2023-08-12T08:00:11;31.20;67.20
11925;DHT22;6022;48.768;18.608;2023-08-12T08:05:07;31.10;68.70
11925;DHT22;6022;48.768;18.608;2023-08-12T08:07:34;32.10;68.50
11925;DHT22;6022;48.768;18.608;2023-08-12T08:10:02;33.00;65.20
11925;DHT22;6022;48.768;18.608;2023-08-12T08:12:29;33.60;62.30
11925;DHT22;6022;48.768;18.608;2023-08-12T08:14:56;34.30;58.50
11925;DHT22;6022;48.768;18.608;2023-08-12T08:17:26;33.90;55.90
11925;DHT22;6022;48.768;18.608;2023-08-12T08:19:53;33.40;53.60
11925;DHT22;6022;48.768;18.608;2023-08-12T08:22:20;33.90;55.80
11925;DHT22;6022;48.768;18.608;2023-08-12T08:24:47;34.10;54.90
11925;DHT22;6022;48.768;18.608;2023-08-12T08:27:14;34.30;54.00
11925;DHT22;6022;48.768;18.608;2023-08-12T08:29:41;33.30;54.50
11925;DHT22;6022;48.768;18.608;2023-08-12T08:32:08;33.60;56.10
11925;DHT22;6022;48.768;18.608;2023-08-12T08:34:37;34.10;53.90
11925;DHT22;6022;48.768;18.608;2023-08-12T08:37:04;34.30;52.60
11925;DHT22;6022;48.768;18.608;2023-08-12T08:39:32;34.30;53.40
11925;DHT22;6022;48.768;18.608;2023-08-12T08:41:59;34.40;51.30
11925;DHT22;6022;48.768;18.608;2023-08-12T08:44:29;34.20;52.50
11925;DHT22;6022;48.768;18.608;2023-08-12T08:47:02;34.20;51.10
11925;DHT22;6022;48.768;18.608;2023-08-12T08:49:30;34.50;50.20
11925;DHT22;6022;48.768;18.608;2023-08-12T08:51:59;34.60;47.30
11925;DHT22;6022;48.768;18.608;2023-08-12T08:54:27;34.50;48.10
11925;DHT22;6022;48.768;18.608;2023-08-12T08:56:55;34.40;48.90
11925;DHT22;6022;48.768;18.608;2023-08-12T08:59:36;34.40;48.80
11925;DHT22;6022;48.768;18.608;2023-08-12T09:02:03;34.30;49.90
11925;DHT22;6022;48.768;18.608;2023-08-12T09:04:32;34.20;49.80
11925;DHT22;6022;48.768;18.608;2023-08-12T09:07:00;34.30;50.60
11925;DHT22;6022;48.768;18.608;2023-08-12T09:09:28;34.20;50.70
11925;DHT22;6022;48.768;18.608;2023-08-12T09:11:56;34.50;48.70
11925;DHT22;6022;48.768;18.608;2023-08-12T09:14:23;34.30;48.50
11925;DHT22;6022;48.768;18.608;2023-08-12T09:16:50;35.20;49.80
11925;DHT22;6022;48.768;18.608;2023-08-12T09:19:17;34.60;50.20
11925;DHT22;6022;48.768;18.608;2023-08-12T09:21:52;34.90;50.20
11925;DHT22;6022;48.768;18.608;2023-08-12T09:24:24;34.80;49.80
11925;DHT22;6022;48.768;18.608;2023-08-12T09:26:52;35.10;47.80
11925;DHT22;6022;48.768;18.608;2023-08-12T09:29:32;34.70;45.80
11925;DHT22;6022;48.768;18.608;2023-08-12T09:32:10;34.50;46.20
11925;DHT22;6022;48.768;18.608;2023-08-12T09:34:49;33.10;49.20
11925;DHT22;6022;48.768;18.608;2023-08-12T09:37:19;33.70;49.40
11925;DHT22;6022;48.768;18.608;2023-08-12T09:39:52;34.20;48.10
11925;DHT22;6022;48.768;18.608;2023-08-12T09:42:28;34.10;48.70
11925;DHT22;6022;48.768;18.608;2023-08-12T09:44:56;34.00;48.00
11925;DHT22;6022;48.768;18.608;2023-08-12T09:47:25;34.30;49.00
11925;DHT22;6022;48.768;18.608;2023-08-12T09:56:54;34.20;48.00
11925;DHT22;6022;48.768;18.608;2023-08-12T09:59:49;34.00;47.00
11925;DHT22;6022;48.768;18.608;2023-08-12T10:02:25;34.20;47.70
11925;DHT22;6022;48.768;18.608;2023-08-12T10:05:01;34.10;48.30
11925;DHT22;6022;48.768;18.608;2023-08-12T10:07:29;33.70;47.90
11925;DHT22;6022;48.768;18.608;2023-08-12T10:09:57;33.80;48.40
11925;DHT22;6022;48.768;18.608;2023-08-12T10:12:29;34.40;46.50
11925;DHT22;6022;48.768;18.608;2023-08-12T10:15:07;34.10;47.00
11925;DHT22;6022;48.768;18.608;2023-08-12T10:17:46;33.50;48.60
11925;DHT22;6022;48.768;18.608;2023-08-12T10:20:21;33.90;50.00
11925;DHT22;6022;48.768;18.608;2023-08-12T10:23:05;33.90;48.20
11925;DHT22;6022;48.768;18.608;2023-08-12T10:28:05;34.20;47.20
11925;DHT22;6022;48.768;18.608;2023-08-12T10:33:03;33.30;44.70
11925;DHT22;6022;48.768;18.608;2023-08-12T10:35:58;32.50;46.40
11925;DHT22;6022;48.768;18.608;2023-08-12T10:41:15;32.80;48.30
11925;DHT22;6022;48.768;18.608;2023-08-12T10:43:53;32.40;49.70
11925;DHT22;6022;48.768;18.608;2023-08-12T10:46:35;33.50;51.10
11925;DHT22;6022;48.768;18.608;2023-08-12T10:51:51;33.50;50.70
11925;DHT22;6022;48.768;18.608;2023-08-12T10:54:28;33.80;50.20
11925;DHT22;6022;48.768;18.608;2023-08-12T11:02:32;33.70;47.20
11925;DHT22;6022;48.768;18.608;2023-08-12T11:05:08;33.30;46.10
11925;DHT22;6022;48.768;18.608;2023-08-12T11:07:40;33.80;48.40
11925;DHT22;6022;48.768;18.608;2023-08-12T11:12:49;33.70;48.40
11925;DHT22;6022;48.768;18.608;2023-08-12T11:18:01;33.50;46.30
11925;DHT22;6022;48.768;18.608;2023-08-12T11:20:30;33.10;47.90
11925;DHT22;6022;48.768;18.608;2023-08-12T11:22:58;33.40;48.40
11925;DHT22;6022;48.768;18.608;2023-08-12T11:25:29;33.60;48.60
11925;DHT22;6022;48.768;18.608;2023-08-12T11:27:58;33.20;49.40
11925;DHT22;6022;48.768;18.608;2023-08-12T11:30:25;32.90;49.70
11925;DHT22;6022;48.768;18.608;2023-08-12T11:32:57;33.40;50.60
11925;DHT22;6022;48.768;18.608;2023-08-12T11:35:25;33.20;49.90
11925;DHT22;6022;48.768;18.608;2023-08-12T11:37:56;33.10;49.10
11925;DHT22;6022;48.768;18.608;2023-08-12T11:40:26;33.30;48.10
11925;DHT22;6022;48.768;18.608;2023-08-12T11:42:54;33.30;46.80
11925;DHT22;6022;48.768;18.608;2023-08-12T11:45:24;33.10;48.60
11925;DHT22;6022;48.768;18.608;2023-08-12T11:47:53;33.00;48.40
11925;DHT22;6022;48.768;18.608;2023-08-12T11:50:24;33.20;48.60
11925;DHT22;6022;48.768;18.608;2023-08-12T11:52:55;33.60;49.30
11925;DHT22;6022;48.768;18.608;2023-08-12T11:55:23;33.60;47.60
11925;DHT22;6022;48.768;18.608;2023-08-12T11:57:51;33.30;48.50
11925;DHT22;6022;48.768;18.608;2023-08-12T12:00:20;33.10;46.50
11925;DHT22;6022;48.768;18.608;2023-08-12T12:02:54;32.30;48.20
11925;DHT22;6022;48.768;18.608;2023-08-12T12:05:27;32.00;48.20
11925;DHT22;6022;48.768;18.608;2023-08-12T12:07:59;32.50;49.20
11925;DHT22;6022;48.768;18.608;2023-08-12T12:10:31;32.80;48.60
11925;DHT22;6022;48.768;18.608;2023-08-12T12:13:03;32.70;48.30
11925;DHT22;6022;48.768;18.608;2023-08-12T12:15:37;32.60;49.20
11925;DHT22;6022;48.768;18.608;2023-08-12T12:18:12;33.40;49.50
11925;DHT22;6022;48.768;18.608;2023-08-12T12:20:56;32.90;47.70
11925;DHT22;6022;48.768;18.608;2023-08-12T12:23:28;31.60;50.00
11925;DHT22;6022;48.768;18.608;2023-08-12T12:26:00;32.10;49.90
11925;DHT22;6022;48.768;18.608;2023-08-12T12:28:31;32.10;49.90
11925;DHT22;6022;48.768;18.608;2023-08-12T12:30:58;32.60;51.10
11925;DHT22;6022;48.768;18.608;2023-08-12T12:33:25;32.40;48.50
11925;DHT22;6022;48.768;18.608;2023-08-12T12:35:52;32.40;48.80
11925;DHT22;6022;48.768;18.608;2023-08-12T12:38:25;32.90;52.00
11925;DHT22;6022;48.768;18.608;2023-08-12T12:40:53;33.00;51.40
11925;DHT22;6022;48.768;18.608;2023-08-12T12:43:20;32.90;50.10
11925;DHT22;6022;48.768;18.608;2023-08-12T12:45:47;33.30;49.30
11925;DHT22;6022;48.768;18.608;2023-08-12T12:48:14;33.30;47.80
11925;DHT22;6022;48.768;18.608;2023-08-12T12:50:41;32.00;48.40
11925;DHT22;6022;48.768;18.608;2023-08-12T12:53:08;32.70;48.40
11925;DHT22;6022;48.768;18.608;2023-08-12T12:55:36;32.00;48.20
11925;DHT22;6022;48.768;18.608;2023-08-12T12:58:03;32.30;49.00
11925;DHT22;6022;48.768;18.608;2023-08-12T13:00:30;31.90;47.90
11925;DHT22;6022;48.768;18.608;2023-08-12T13:02:57;32.30;50.40
11925;DHT22;6022;48.768;18.608;2023-08-12T13:07:52;31.70;51.00
11925;DHT22;6022;48.768;18.608;2023-08-12T13:10:19;31.30;49.60
11925;DHT22;6022;48.768;18.608;2023-08-12T13:12:46;31.50;50.50
11925;DHT22;6022;48.768;18.608;2023-08-12T13:15:15;31.50;50.00
11925;DHT22;6022;48.768;18.608;2023-08-12T13:20:10;30.80;50.10
11925;DHT22;6022;48.768;18.608;2023-08-12T13:22:38;31.30;52.80
11925;DHT22;6022;48.768;18.608;2023-08-12T13:25:05;30.70;53.10
11925;DHT22;6022;48.768;18.608;2023-08-12T13:27:33;31.30;53.00
11925;DHT22;6022;48.768;18.608;2023-08-12T13:40:39;30.80;52.20
11925;DHT22;6022;48.768;18.608;2023-08-12T13:45:36;30.40;51.90
11925;DHT22;6022;48.768;18.608;2023-08-12T13:48:04;31.00;51.00
11925;DHT22;6022;48.768;18.608;2023-08-12T13:50:31;30.30;51.70
11925;DHT22;6022;48.768;18.608;2023-08-12T13:53:02;30.00;52.20
11925;DHT22;6022;48.768;18.608;2023-08-12T13:55:29;30.30;53.80
11925;DHT22;6022;48.768;18.608;2023-08-12T13:58:12;30.40;53.20
11925;DHT22;6022;48.768;18.608;2023-08-12T14:05:37;30.20;53.10
11925;DHT22;6022;48.768;18.608;2023-08-12T14:08:04;30.00;52.50
11925;DHT22;6022;48.768;18.608;2023-08-12T14:10:32;30.20;53.30
11925;DHT22;6022;48.768;18.608;2023-08-12T14:13:04;29.70;52.60
11925;DHT22;6022;48.768;18.608;2023-08-12T14:15:33;29.30;52.60
11925;DHT22;6022;48.768;18.608;2023-08-12T14:18:01;29.80;55.10
11925;DHT22;6022;48.768;18.608;2023-08-12T14:20:29;30.00;54.90
11925;DHT22;6022;48.768;18.608;2023-08-12T14:22:56;29.50;54.30
11925;DHT22;6022;48.768;18.608;2023-08-12T14:25:24;29.50;54.80
11925;DHT22;6022;48.768;18.608;2023-08-12T14:27:51;29.20;56.40
11925;DHT22;6022;48.768;18.608;2023-08-12T14:41:51;29.40;57.20
11925;DHT22;6022;48.768;18.608;2023-08-12T14:44:58;29.40;57.50
11925;DHT22;6022;48.768;18.608;2023-08-12T14:47:34;29.40;56.80
11925;DHT22;6022;48.768;18.608;2023-08-12T14:50:03;29.20;57.70
11925;DHT22;6022;48.768;18.608;2023-08-12T14:52:31;29.20;57.80
11925;DHT22;6022;48.768;18.608;2023-08-12T14:54:58;29.40;58.20
11925;DHT22;6022;48.768;18.608;2023-08-12T14:57:25;29.00;57.30
11925;DHT22;6022;48.768;18.608;2023-08-12T14:59:54;29.00;57.70
11925;DHT22;6022;48.768;18.608;2023-08-12T15:04:52;28.80;59.40
11925;DHT22;6022;48.768;18.608;2023-08-12T15:09:48;29.10;59.20
11925;DHT22;6022;48.768;18.608;2023-08-12T15:12:15;28.70;58.60
11925;DHT22;6022;48.768;18.608;2023-08-12T15:14:43;28.50;58.10
11925;DHT22;6022;48.768;18.608;2023-08-12T15:17:10;29.50;60.20
11925;DHT22;6022;48.768;18.608;2023-08-12T15:22:05;28.30;60.00
11925;DHT22;6022;48.768;18.608;2023-08-12T15:24:32;28.70;60.10
11925;DHT22;6022;48.768;18.608;2023-08-12T15:26:59;28.70;60.90
11925;DHT22;6022;48.768;18.608;2023-08-12T15:31:53;28.60;60.60
11925;DHT22;6022;48.768;18.608;2023-08-12T15:36:50;28.60;62.30
11925;DHT22;6022;48.768;18.608;2023-08-12T15:44:15;28.80;62.50
11925;DHT22;6022;48.768;18.608;2023-08-12T15:49:10;28.40;63.90
11925;DHT22;6022;48.768;18.608;2023-08-12T15:51:41;28.40;64.10
11925;DHT22;6022;48.768;18.608;2023-08-12T15:54:08;28.30;64.60
11925;DHT22;6022;48.768;18.608;2023-08-12T15:59:04;27.70;64.30
11925;DHT22;6022;48.768;18.608;2023-08-12T16:04:02;28.10;65.30
11925;DHT22;6022;48.768;18.608;2023-08-12T16:14:11;28.30;68.10
11925;DHT22;6022;48.768;18.608;2023-08-12T16:24:02;27.80;69.30
11925;DHT22;6022;48.768;18.608;2023-08-12T16:28:57;27.50;70.10
11925;DHT22;6022;48.768;18.608;2023-08-12T16:31:24;26.60;78.10
11925;DHT22;6022;48.768;18.608;2023-08-12T16:33:55;27.10;77.80
11925;DHT22;6022;48.768;18.608;2023-08-12T16:51:14;26.70;83.00
11925;DHT22;6022;48.768;18.608;2023-08-12T17:01:06;26.70;86.70
11925;DHT22;6022;48.768;18.608;2023-08-12T17:03:35;26.80;87.00
11925;DHT22;6022;48.768;18.608;2023-08-12T17:11:07;26.40;89.60
11925;DHT22;6022;48.768;18.608;2023-08-12T17:33:21;26.10;93.70
11925;DHT22;6022;48.768;18.608;2023-08-12T17:40:48;25.40;96.40
11925;DHT22;6022;48.768;18.608;2023-08-12T17:58:15;25.00;99.90
11925;DHT22;6022;48.768;18.608;2023-08-12T18:03:13;24.80;99.90
11925;DHT22;6022;48.768;18.608;2023-08-12T18:10:40;25.10;99.90
11925;DHT22;6022;48.768;18.608;2023-08-12T18:15:38;24.40;99.90
11925;DHT22;6022;48.768;18.608;2023-08-12T18:30:47;24.20;99.90
11925;DHT22;6022;48.768;18.608;2023-08-12T18:35:46;23.90;99.90
11925;DHT22;6022;48.768;18.608;2023-08-12T18:38:13;24.00;99.90
11925;DHT22;6022;48.768;18.608;2023-08-12T18:40:40;23.80;99.90
11925;DHT22;6022;48.768;18.608;2023-08-12T18:43:10;23.60;99.90
11925;DHT22;6022;48.768;18.608;2023-08-12T18:48:13;23.40;99.90
11925;DHT22;6022;48.768;18.608;2023-08-12T18:58:16;23.20;99.90
11925;DHT22;6022;48.768;18.608;2023-08-12T19:03:17;22.90;99.90
11925;DHT22;6022;48.768;18.608;2023-08-12T19:08:19;22.80;99.90
11925;DHT22;6022;48.768;18.608;2023-08-12T19:11:09;22.60;99.90
11925;DHT22;6022;48.768;18.608;2023-08-12T19:13:44;22.60;99.90
11925;DHT22;6022;48.768;18.608;2023-08-12T19:18:39;22.30;99.90
11925;DHT22;6022;48.768;18.608;2023-08-12T19:23:39;22.50;99.90
11925;DHT22;6022;48.768;18.608;2023-08-12T19:33:49;22.20;99.90
11925;DHT22;6022;48.768;18.608;2023-08-12T19:36:19;22.00;99.90
11925;DHT22;6022;48.768;18.608;2023-08-12T19:38:54;21.80;99.90
11925;DHT22;6022;48.768;18.608;2023-08-12T19:41:37;21.70;99.90
11925;DHT22;6022;48.768;18.608;2023-08-12T19:44:23;21.60;99.90
11925;DHT22;6022;48.768;18.608;2023-08-12T19:52:25;21.30;99.90
11925;DHT22;6022;48.768;18.608;2023-08-12T19:54:57;21.40;99.90
11925;DHT22;6022;48.768;18.608;2023-08-12T20:00:11;21.30;99.90
11925;DHT22;6022;48.768;18.608;2023-08-12T20:02:42;21.10;99.90
11925;DHT22;6022;48.768;18.608;2023-08-12T20:05:20;21.10;99.90
11925;DHT22;6022;48.768;18.608;2023-08-12T20:10:44;21.20;99.90
11925;DHT22;6022;48.768;18.608;2023-08-12T20:20:48;21.10;99.90